createdAt,value
2022-08-22T00:01:10.764Z,17.83
2022-08-22T00:02:58.076Z,18.00
2022-08-22T00:03:04.187Z,18.30
2022-08-22T00:03:55.218Z,17.96
2022-08-22T00:06:41.834Z,17.93
2022-08-22T00:09:31.950Z,17.77
2022-08-22T00:12:16.177Z,17.77
2022-08-22T00:14:59.974Z,17.98
2022-08-22T00:17:43.869Z,18.02
2022-08-22T00:20:26.094Z,17.94
2022-08-22T00:23:13.143Z,17.64
2022-08-22T00:25:56.127Z,17.86
2022-08-22T00:28:35.840Z,17.86
2022-08-22T00:31:24.378Z,17.83
2022-08-22T00:34:06.237Z,17.82
2022-08-22T00:36:47.680Z,17.75
2022-08-22T00:39:29.879Z,17.78
2022-08-22T00:42:31.793Z,17.80
2022-08-22T00:45:43.100Z,17.75
2022-08-22T00:48:36.664Z,17.97
2022-08-22T00:51:51.854Z,17.82
2022-08-22T00:54:39.328Z,17.81
2022-08-22T00:57:41.801Z,17.81
2022-08-22T01:00:21.892Z,17.72
2022-08-22T01:03:20.096Z,17.79
2022-08-22T01:06:08.213Z,17.68
2022-08-22T01:08:59.849Z,17.66
2022-08-22T01:12:01.461Z,17.67
2022-08-22T01:14:48.792Z,17.76
2022-08-22T01:18:01.253Z,17.78
2022-08-22T01:21:09.201Z,17.84
2022-08-22T01:24:16.894Z,17.55
2022-08-22T01:27:31.384Z,17.81
2022-08-22T01:30:45.086Z,17.76
2022-08-22T01:34:00.915Z,17.63
2022-08-22T01:37:08.342Z,17.87
2022-08-22T01:40:05.280Z,17.66
2022-08-22T01:42:58.194Z,17.50
2022-08-22T01:45:55.150Z,17.62
2022-08-22T01:48:39.203Z,17.65
2022-08-22T01:51:21.218Z,17.68
2022-08-22T01:54:03.550Z,17.63
2022-08-22T01:56:43.828Z,17.70
2022-08-22T01:59:34.007Z,17.76
2022-08-22T02:02:48.988Z,17.78
2022-08-22T02:05:31.218Z,17.61
2022-08-22T02:08:18.367Z,17.62
2022-08-22T02:11:03.336Z,17.58
2022-08-22T02:13:56.916Z,17.55
2022-08-22T02:16:39.015Z,17.60
2022-08-22T02:19:27.155Z,17.69
2022-08-22T02:22:08.928Z,17.65
2022-08-22T02:24:52.595Z,17.60
2022-08-22T02:27:38.247Z,17.63
2022-08-22T02:30:15.259Z,17.63
2022-08-22T02:33:06.608Z,17.63
2022-08-22T02:35:50.191Z,17.78
2022-08-22T02:38:30.180Z,17.54
2022-08-22T02:41:11.870Z,17.75
2022-08-22T02:43:50.710Z,17.72
2022-08-22T02:46:31.720Z,17.57
2022-08-22T02:49:14.260Z,17.84
2022-08-22T02:51:54.755Z,17.78
2022-08-22T02:54:36.892Z,17.85
2022-08-22T02:57:15.226Z,17.88
2022-08-22T03:00:30.978Z,17.87
2022-08-22T03:03:16.243Z,17.80
2022-08-22T03:06:01.393Z,17.80
2022-08-22T03:08:47.333Z,18.08
2022-08-22T03:11:30.153Z,17.99
2022-08-22T03:14:09.236Z,17.73
2022-08-22T03:16:55.471Z,17.92
2022-08-22T03:19:42.714Z,17.82
2022-08-22T03:22:23.494Z,17.75
2022-08-22T03:25:01.228Z,17.94
2022-08-22T03:27:41.964Z,17.86
2022-08-22T03:30:21.203Z,18.00
2022-08-22T03:32:59.729Z,17.96
2022-08-22T03:35:50.756Z,17.88
2022-08-22T03:38:30.191Z,17.96
2022-08-22T03:41:58.861Z,17.90
2022-08-22T03:45:13.963Z,18.00
2022-08-22T03:48:21.725Z,17.95
2022-08-22T03:51:34.388Z,18.01
2022-08-22T03:54:47.963Z,18.04
2022-08-22T03:58:04.184Z,17.93
2022-08-22T04:01:13.798Z,18.08
2022-08-22T04:04:36.347Z,17.91
2022-08-22T04:07:38.383Z,17.98
2022-08-22T04:10:44.139Z,17.86
2022-08-22T04:13:39.232Z,18.00
2022-08-22T04:16:45.015Z,18.00
2022-08-22T04:19:41.219Z,18.02
2022-08-22T04:22:27.367Z,17.97
2022-08-22T04:25:08.140Z,17.82
2022-08-22T04:27:52.139Z,17.73
2022-08-22T04:30:33.179Z,17.85
2022-08-22T04:33:11.978Z,17.70
2022-08-22T04:35:59.333Z,17.89
2022-08-22T04:38:39.748Z,17.92
2022-08-22T04:41:25.614Z,18.00
2022-08-22T04:44:06.256Z,17.99
2022-08-22T04:46:46.703Z,17.88
2022-08-22T04:49:26.408Z,18.08
2022-08-22T04:52:19.400Z,18.08
2022-08-22T04:55:04.092Z,18.11
2022-08-22T04:57:46.991Z,18.09
2022-08-22T05:00:21.485Z,17.98
2022-08-22T05:02:58.990Z,18.12
2022-08-22T05:05:39.687Z,18.00
2022-08-22T05:08:19.795Z,18.08
2022-08-22T05:10:56.202Z,18.12
2022-08-22T05:13:33.349Z,18.12
2022-08-22T05:16:20.883Z,18.29
2022-08-22T05:19:02.170Z,18.18
2022-08-22T05:21:39.923Z,18.34
2022-08-22T05:24:24.177Z,18.21
2022-08-22T05:27:12.515Z,18.14
2022-08-22T05:29:50.550Z,18.22
2022-08-22T05:32:30.213Z,18.46
2022-08-22T05:35:09.807Z,18.40
2022-08-22T05:37:47.591Z,18.53
2022-08-22T05:40:26.657Z,18.33
2022-08-22T05:43:01.210Z,18.39
2022-08-22T05:45:38.188Z,18.22
2022-08-22T05:48:19.158Z,18.43
2022-08-22T05:50:58.598Z,18.35
2022-08-22T05:53:38.481Z,18.30
2022-08-22T05:56:22.979Z,18.54
2022-08-22T05:59:08.458Z,18.44
2022-08-22T06:01:52.247Z,18.26
2022-08-22T06:04:36.480Z,18.17
2022-08-22T06:07:18.941Z,18.33
2022-08-22T06:10:06.879Z,18.51
2022-08-22T06:12:51.327Z,18.52
2022-08-22T06:15:32.091Z,18.54
2022-08-22T06:18:10.408Z,18.38
2022-08-22T06:20:49.137Z,18.47
2022-08-22T06:23:28.024Z,18.65
2022-08-22T06:26:03.720Z,18.99
2022-08-22T06:28:54.822Z,18.72
2022-08-22T06:31:32.537Z,18.77
2022-08-22T06:34:12.081Z,18.87
2022-08-22T06:36:50.135Z,19.17
2022-08-22T06:39:27.133Z,19.06
2022-08-22T06:42:05.907Z,19.39
2022-08-22T06:44:46.076Z,19.50
2022-08-22T06:47:26.009Z,19.61
2022-08-22T06:50:04.550Z,19.50
2022-08-22T06:52:48.591Z,19.25
2022-08-22T06:55:26.335Z,19.27
2022-08-22T06:58:04.690Z,19.06
2022-08-22T07:00:44.585Z,19.41
2022-08-22T07:03:28.211Z,19.49
2022-08-22T07:06:03.890Z,19.85
2022-08-22T07:08:39.270Z,20.02
2022-08-22T07:11:18.779Z,20.04
2022-08-22T07:13:57.760Z,20.22
2022-08-22T07:16:38.613Z,20.02
2022-08-22T07:19:24.784Z,20.13
2022-08-22T07:22:03.722Z,20.14
2022-08-22T07:24:42.451Z,19.95
2022-08-22T07:27:27.278Z,19.77
2022-08-22T07:30:10.209Z,19.54
2022-08-22T07:32:53.917Z,19.62
2022-08-22T07:35:31.594Z,19.56
2022-08-22T07:38:16.952Z,19.50
2022-08-22T07:41:02.014Z,19.56
2022-08-22T07:43:41.718Z,19.61
2022-08-22T07:46:28.660Z,19.66
2022-08-22T07:49:13.971Z,19.59
2022-08-22T07:51:53.463Z,19.32
2022-08-22T07:54:36.054Z,19.66
2022-08-22T07:57:16.418Z,19.67
2022-08-22T07:59:53.450Z,19.51
2022-08-22T08:02:28.700Z,19.58
2022-08-22T08:05:05.143Z,19.56
2022-08-22T08:07:44.757Z,19.45
2022-08-22T08:10:24.410Z,19.64
2022-08-22T08:13:03.748Z,19.55
2022-08-22T08:15:40.386Z,19.48
2022-08-22T08:18:23.605Z,19.64
2022-08-22T08:21:03.651Z,19.59
2022-08-22T08:23:41.969Z,19.59
2022-08-22T08:26:20.568Z,19.67
2022-08-22T08:28:58.295Z,19.84
2022-08-22T08:31:38.133Z,19.70
2022-08-22T08:34:23.242Z,19.67
2022-08-22T08:37:03.577Z,19.62
2022-08-22T08:39:42.517Z,19.64
2022-08-22T08:43:00.247Z,19.82
2022-08-22T08:46:16.944Z,19.82
2022-08-22T08:49:23.897Z,20.05
2022-08-22T08:52:26.755Z,20.08
2022-08-22T08:55:21.811Z,20.26
2022-08-22T08:58:17.704Z,20.26
2022-08-22T09:01:01.973Z,20.23
2022-08-22T09:04:05.628Z,20.21
2022-08-22T09:07:25.486Z,20.44
2022-08-22T09:10:16.636Z,20.23
2022-08-22T09:13:13.126Z,20.26
2022-08-22T09:16:05.949Z,20.47
2022-08-22T09:18:59.472Z,20.53
2022-08-22T09:22:14.479Z,20.42
2022-08-22T09:25:23.391Z,20.37
2022-08-22T09:28:03.015Z,20.42
2022-08-22T09:30:59.194Z,20.73
2022-08-22T09:33:42.980Z,20.87
2022-08-22T09:36:21.998Z,20.93
2022-08-22T09:39:00.967Z,21.04
2022-08-22T09:41:42.781Z,21.03
2022-08-22T09:44:30.176Z,20.95
2022-08-22T09:47:14.154Z,21.21
2022-08-22T09:49:59.851Z,21.38
2022-08-22T09:52:53.563Z,21.31
2022-08-22T09:55:43.669Z,21.21
2022-08-22T09:58:27.890Z,21.16
2022-08-22T10:01:11.987Z,21.18
2022-08-22T10:04:28.988Z,21.14
2022-08-22T10:07:11.901Z,21.31
2022-08-22T10:09:58.306Z,21.45
2022-08-22T10:12:45.527Z,21.39
2022-08-22T10:15:35.477Z,21.32
2022-08-22T10:18:26.181Z,21.23
2022-08-22T10:21:10.118Z,21.33
2022-08-22T10:23:52.914Z,21.33
2022-08-22T10:26:37.887Z,21.31
2022-08-22T10:29:40.631Z,21.32
2022-08-22T10:32:30.881Z,21.13
2022-08-22T10:35:19.601Z,21.27
2022-08-22T10:37:58.393Z,21.25
2022-08-22T10:40:38.441Z,21.26
2022-08-22T10:43:21.251Z,21.31
2022-08-22T10:46:12.532Z,21.27
2022-08-22T10:48:53.241Z,21.65
2022-08-22T10:51:40.793Z,21.72
2022-08-22T10:54:48.807Z,21.96
2022-08-22T10:57:54.412Z,21.75
2022-08-22T11:00:46.164Z,21.44
2022-08-22T11:03:31.159Z,21.50
2022-08-22T11:06:13.728Z,21.51
2022-08-22T11:09:14.674Z,21.52
2022-08-22T11:11:57.273Z,21.65
2022-08-22T11:15:03.483Z,21.65
2022-08-22T11:18:14.763Z,21.75
2022-08-22T11:21:02.090Z,21.29
2022-08-22T11:23:46.237Z,21.27
2022-08-22T11:26:46.585Z,21.24
2022-08-22T11:29:42.536Z,21.12
2022-08-22T11:32:24.272Z,21.37
2022-08-22T11:35:09.035Z,21.32
2022-08-22T11:37:56.418Z,21.30
2022-08-22T11:40:40.895Z,21.21
2022-08-22T11:43:38.484Z,21.05
2022-08-22T11:46:23.109Z,21.04
2022-08-22T11:49:10.863Z,21.29
2022-08-22T11:52:03.677Z,21.39
2022-08-22T11:54:59.049Z,21.20
2022-08-22T11:57:38.888Z,21.13
2022-08-22T12:00:35.069Z,20.90
2022-08-22T12:03:34.584Z,21.02
2022-08-22T12:06:34.712Z,21.18
2022-08-22T12:09:17.978Z,21.21
2022-08-22T12:12:24.070Z,21.21
2022-08-22T12:15:08.893Z,21.41
2022-08-22T12:18:30.863Z,21.53
2022-08-22T12:21:26.559Z,21.47
2022-08-22T12:24:23.726Z,21.75
2022-08-22T12:27:36.213Z,21.78
2022-08-22T12:30:18.732Z,21.58
2022-08-22T12:33:26.023Z,21.59
2022-08-22T12:36:09.619Z,21.52
2022-08-22T12:39:27.468Z,21.47
2022-08-22T12:42:11.110Z,21.53
2022-08-22T12:45:01.706Z,21.48
2022-08-22T12:47:55.449Z,21.39
2022-08-22T12:50:43.047Z,21.50
2022-08-22T12:53:49.620Z,21.49
2022-08-22T12:56:34.685Z,21.53
2022-08-22T12:59:24.630Z,21.50
2022-08-22T13:02:02.566Z,21.38
2022-08-22T13:04:46.835Z,21.26
2022-08-22T13:07:29.123Z,21.18
2022-08-22T13:10:09.119Z,21.19
2022-08-22T13:12:48.586Z,21.37
2022-08-22T13:15:28.680Z,20.99
2022-08-22T13:18:28.669Z,21.11
2022-08-22T13:21:10.421Z,21.05
2022-08-22T13:23:53.479Z,21.08
2022-08-22T13:26:33.206Z,21.01
2022-08-22T13:29:27.201Z,20.91
2022-08-22T13:32:03.748Z,20.76
2022-08-22T13:34:43.561Z,20.95
2022-08-22T13:37:25.911Z,21.10
2022-08-22T13:40:06.076Z,20.97
2022-08-22T13:42:47.771Z,21.03
2022-08-22T13:45:26.521Z,21.11
2022-08-22T13:48:04.146Z,21.02
2022-08-22T13:51:02.120Z,21.07
2022-08-22T13:53:49.765Z,20.83
2022-08-22T13:56:47.169Z,20.68
2022-08-22T13:59:49.509Z,20.83
2022-08-22T14:02:43.167Z,20.67
2022-08-22T14:05:23.334Z,20.76
2022-08-22T14:08:12.778Z,20.91
2022-08-22T14:10:52.243Z,20.65
2022-08-22T14:13:46.306Z,20.43
2022-08-22T14:16:24.516Z,20.45
2022-08-22T14:19:05.960Z,20.31
2022-08-22T14:21:44.419Z,20.33
2022-08-22T14:39:48.751Z,20.24
2022-08-22T14:42:26.659Z,20.01
2022-08-22T14:45:07.034Z,19.79
2022-08-22T14:48:14.484Z,19.92
2022-08-22T14:50:45.841Z,20.00
2022-08-22T14:53:28.699Z,20.02
2022-08-22T14:56:11.027Z,20.06
2022-08-22T14:58:51.973Z,19.95
2022-08-22T15:01:29.822Z,19.90
2022-08-22T15:04:10.543Z,19.92
2022-08-22T15:06:53.551Z,19.90
2022-08-22T15:09:34.146Z,19.85
2022-08-22T15:12:22.452Z,19.72
2022-08-22T15:15:00.314Z,19.69
2022-08-22T15:17:44.071Z,19.59
2022-08-22T15:20:28.577Z,19.52
2022-08-22T15:23:10.123Z,19.36
2022-08-22T15:25:46.982Z,19.56
2022-08-22T15:28:22.075Z,19.36
2022-08-22T15:31:07.067Z,19.50
2022-08-22T15:33:45.451Z,19.48
2022-08-22T15:36:22.478Z,19.31
2022-08-22T15:39:28.765Z,19.33
2022-08-22T15:42:06.076Z,19.41
2022-08-22T15:44:44.298Z,19.32
2022-08-22T15:47:30.422Z,19.31
2022-08-22T15:50:14.766Z,19.36
2022-08-22T15:53:19.969Z,19.24
2022-08-22T15:56:28.097Z,19.19
2022-08-22T15:59:53.939Z,19.02
2022-08-22T16:02:35.472Z,19.17
2022-08-22T16:05:26.638Z,19.15
2022-08-22T16:08:05.949Z,19.12
2022-08-22T16:10:44.425Z,18.99
2022-08-22T16:13:41.914Z,19.09
2022-08-22T16:16:49.505Z,19.20
2022-08-22T16:19:27.362Z,19.25
2022-08-22T16:22:15.775Z,19.26
2022-08-22T16:25:17.781Z,19.36
2022-08-22T16:27:58.405Z,19.39
2022-08-22T16:30:36.629Z,19.53
2022-08-22T16:33:18.532Z,19.48
2022-08-22T16:36:45.246Z,19.41
2022-08-22T16:39:42.004Z,19.31
2022-08-22T16:42:26.312Z,19.21
2022-08-22T16:45:13.383Z,19.02
2022-08-22T16:47:56.695Z,19.09
2022-08-22T16:50:37.875Z,19.09
2022-08-22T16:53:52.573Z,19.02
2022-08-22T16:56:31.467Z,18.98
2022-08-22T16:59:38.637Z,18.95
2022-08-22T17:02:28.572Z,18.82
2022-08-22T17:05:19.394Z,18.63
2022-08-22T17:08:08.113Z,18.75
2022-08-22T17:11:05.952Z,18.70
2022-08-22T17:13:55.913Z,18.58
2022-08-22T17:16:54.119Z,18.60
2022-08-22T17:19:42.587Z,18.59
2022-08-22T17:22:29.232Z,18.35
2022-08-22T17:25:22.748Z,18.22
2022-08-22T17:28:14.364Z,18.17
2022-08-22T17:31:00.502Z,18.41
2022-08-22T17:33:56.426Z,18.29
2022-08-22T17:36:43.814Z,18.22
2022-08-22T17:39:29.988Z,18.29
2022-08-22T17:42:21.433Z,18.22
2022-08-22T17:45:08.349Z,18.06
2022-08-22T17:47:48.563Z,18.14
2022-08-22T17:50:26.896Z,18.10
2022-08-22T17:53:04.421Z,18.10
2022-08-22T17:55:54.350Z,18.00
2022-08-22T17:58:37.633Z,17.88
2022-08-22T18:01:37.765Z,17.88
2022-08-22T18:04:24.306Z,17.95
2022-08-22T18:07:20.104Z,18.01
2022-08-22T18:10:00.488Z,18.02
2022-08-22T18:12:41.926Z,17.90
2022-08-22T18:15:24.261Z,17.95
2022-08-22T18:18:06.367Z,17.93
2022-08-22T18:20:51.621Z,17.98
2022-08-22T18:23:39.241Z,18.00
2022-08-22T18:26:25.074Z,18.10
2022-08-22T18:29:09.323Z,18.12
2022-08-22T18:31:50.524Z,18.20
2022-08-22T18:34:38.304Z,18.12
2022-08-22T18:37:23.211Z,18.03
2022-08-22T18:40:03.892Z,17.99
2022-08-22T18:42:45.390Z,17.96
2022-08-22T18:45:44.304Z,18.14
2022-08-22T18:48:21.750Z,18.00
2022-08-22T18:51:16.479Z,18.07
2022-08-22T18:53:55.208Z,18.02
2022-08-22T18:56:50.954Z,18.20
2022-08-22T18:59:40.528Z,18.06
2022-08-22T19:02:33.703Z,18.30
2022-08-22T19:05:34.442Z,18.13
2022-08-22T19:08:34.365Z,18.30
2022-08-22T19:11:20.406Z,18.33
2022-08-22T19:14:28.165Z,18.40
2022-08-22T19:17:32.784Z,18.45
2022-08-22T19:20:29.319Z,18.90
2022-08-22T19:23:41.314Z,19.19
2022-08-22T19:26:33.958Z,18.48
2022-08-22T19:29:47.685Z,18.66
2022-08-22T19:33:13.687Z,18.42
2022-08-22T19:36:08.955Z,18.32
2022-08-22T19:38:59.983Z,18.23
2022-08-22T19:41:54.540Z,18.17
2022-08-22T19:44:42.250Z,18.08
2022-08-22T19:47:31.499Z,18.26
2022-08-22T19:50:13.297Z,18.24
2022-08-22T19:52:59.351Z,18.09
2022-08-22T19:55:55.658Z,18.00
2022-08-22T19:58:42.388Z,18.15
2022-08-22T20:01:36.773Z,18.05
2022-08-22T20:04:31.496Z,18.04
2022-08-22T20:07:14.653Z,18.15
2022-08-22T20:10:04.418Z,17.99
2022-08-22T20:12:49.583Z,17.97
2022-08-22T20:15:28.156Z,17.91
2022-08-22T20:21:01.033Z,17.94
2022-08-22T20:23:35.240Z,17.92
2022-08-22T20:26:09.708Z,18.34
2022-08-22T20:28:48.936Z,18.57
2022-08-22T20:31:27.567Z,18.88
2022-08-22T20:34:05.278Z,18.81
2022-08-22T20:36:44.142Z,18.98
2022-08-22T20:39:22.377Z,18.88
2022-08-22T20:42:04.909Z,18.43
2022-08-22T20:44:43.094Z,18.35
2022-08-22T20:47:24.062Z,18.29
2022-08-22T20:50:02.022Z,17.98
2022-08-22T20:52:39.199Z,18.07
2022-08-22T20:55:17.527Z,18.12
2022-08-22T20:57:56.283Z,17.98
2022-08-22T21:00:35.443Z,18.05
2022-08-22T21:03:20.210Z,17.98
2022-08-22T21:05:54.511Z,17.94
2022-08-22T21:08:28.942Z,17.88
2022-08-22T21:11:37.325Z,17.97
2022-08-22T21:14:22.483Z,18.00
2022-08-22T21:16:56.867Z,17.92
2022-08-22T21:19:32.749Z,18.04
2022-08-22T21:22:13.261Z,17.93
2022-08-22T21:24:47.755Z,17.95
2022-08-22T21:27:27.021Z,17.85
2022-08-22T21:30:05.130Z,17.86
2022-08-22T21:32:43.303Z,17.85
2022-08-22T21:35:27.151Z,17.94
2022-08-22T21:38:03.024Z,17.87
2022-08-22T21:40:39.672Z,17.89
2022-08-22T21:43:28.081Z,17.90
2022-08-22T21:46:03.291Z,17.79
2022-08-22T21:48:43.885Z,17.95
2022-08-22T21:51:42.021Z,17.93
2022-08-22T21:54:40.867Z,17.86
2022-08-22T21:57:34.711Z,17.90
2022-08-22T22:00:31.780Z,17.87
2022-08-22T22:03:11.562Z,17.88
2022-08-22T22:05:46.204Z,18.07
2022-08-22T22:08:22.249Z,18.50
2022-08-22T22:11:00.024Z,18.73
2022-08-22T22:13:34.838Z,19.06
2022-08-22T22:16:12.148Z,19.28
2022-08-22T22:18:46.691Z,19.26
2022-08-22T22:21:20.972Z,19.04
2022-08-22T22:23:58.458Z,18.65
2022-08-22T22:26:33.352Z,18.76
2022-08-22T22:29:09.253Z,18.49
2022-08-22T22:31:44.572Z,18.46
2022-08-22T22:34:19.119Z,18.29
2022-08-22T22:36:53.323Z,18.43
2022-08-22T22:39:29.993Z,18.35
2022-08-22T22:42:04.357Z,18.35
2022-08-22T22:44:38.875Z,18.27
2022-08-22T22:47:13.107Z,18.25
2022-08-22T22:49:47.699Z,18.20
2022-08-22T22:52:22.148Z,18.27
2022-08-22T22:54:58.543Z,18.28
2022-08-22T22:57:32.681Z,18.14
2022-08-22T23:00:18.283Z,18.15
2022-08-22T23:02:52.396Z,18.18
2022-08-22T23:05:26.850Z,18.08
2022-08-22T23:08:01.684Z,18.23
2022-08-22T23:10:37.736Z,18.22
2022-08-22T23:13:11.976Z,18.22
2022-08-22T23:15:46.567Z,18.34
2022-08-22T23:18:20.980Z,18.14
2022-08-22T23:21:11.680Z,18.13
2022-08-22T23:23:46.258Z,18.10
2022-08-22T23:26:22.028Z,18.08
2022-08-22T23:28:56.236Z,18.08
2022-08-22T23:31:33.679Z,18.27
2022-08-22T23:34:11.051Z,18.14
2022-08-22T23:36:47.983Z,18.06
2022-08-22T23:39:23.488Z,17.97
2022-08-22T23:42:00.792Z,18.15
2022-08-22T23:44:37.472Z,18.05
2022-08-22T23:47:12.176Z,18.12
2022-08-22T23:49:46.463Z,18.12
2022-08-22T23:52:20.972Z,18.07
2022-08-22T23:54:55.852Z,18.07
2022-08-22T23:57:33.149Z,18.01
